Time;durP1;ratioP1;P1;durP2;ratioP2;P2;SDS_P1;SDS_P2;PMS_P1;PMS_P2;Temp;Humidity;BMP_temperature;BMP_pressure;BME280_temperature;BME280_humidity;BME280_pressure;Samples;Min_cycle;Max_cycle;Signal;HPM_P1;HPM_P2
2022/04/23 00:01:53;;;;;;;67.83;63.13;;;;;;;10.98;100.00;100493.58;1848747;76;85632;-67
2022/04/23 00:07:37;;;;;;;70.20;65.50;;;;;;;11.00;100.00;100489.10;1885895;74;86134;-73
2022/04/23 00:13:23;;;;;;;68.40;63.63;;;;;;;11.00;100.00;100471.87;1919018;72;85487;-72
2022/04/23 00:19:10;;;;;;;70.93;66.30;;;;;;;10.93;100.00;100464.47;1928473;71;40447;-68
2022/04/23 00:24:53;;;;;;;69.50;64.83;;;;;;;10.72;100.00;100468.05;1835737;76;85300;-73
2022/04/23 00:30:44;;;;;;;74.60;69.40;;;;;;;10.82;100.00;100456.00;1849664;76;85389;-72
2022/04/23 00:36:29;;;;;;;72.73;67.73;;;;;;;10.33;100.00;100360.48;1797086;78;85909;-68
2022/04/23 00:42:17;;;;;;;71.97;66.97;;;;;;;10.99;100.00;100443.84;1950916;73;86322;-68
2022/04/23 00:48:01;;;;;;;74.10;69.00;;;;;;;10.88;100.00;100437.56;1801708;78;86617;-72
2022/04/23 00:53:46;;;;;;;70.73;65.80;;;;;;;10.92;100.00;100436.41;1891155;73;86686;-73
2022/04/23 00:59:31;;;;;;;75.00;69.87;;;;;;;10.95;100.00;100433.05;1869198;75;86344;-73
2022/04/23 01:05:15;;;;;;;72.47;67.50;;;;;;;10.93;100.00;100426.95;1928259;71;39691;-73
2022/04/23 01:11:00;;;;;;;75.47;70.03;;;;;;;10.92;100.00;100423.34;1837687;76;85567;-72
2022/04/23 01:16:44;;;;;;;70.60;65.60;;;;;;;10.96;100.00;100424.95;1882140;74;86569;-68
2022/04/23 01:22:29;;;;;;;73.07;67.50;;;;;;;11.04;100.00;100417.93;1808923;77;86581;-73
2022/04/23 01:28:16;;;;;;;74.77;69.73;;;;;;;10.35;100.00;100311.89;1871867;70;39467;-68
2022/04/23 01:34:01;;;;;;;73.23;67.93;;;;;;;10.84;100.00;100410.11;1861441;76;86387;-73
2022/04/23 01:39:45;;;;;;;72.10;67.10;;;;;;;10.90;100.00;100409.50;1799384;78;86392;-74
2022/04/23 01:45:29;;;;;;;74.57;69.37;;;;;;;10.94;100.00;100408.60;1856639;75;86161;-69
2022/04/23 01:51:23;;;;;;;74.47;69.23;;;;;;;10.88;100.00;100394.50;1913773;75;86535;-68
2022/04/23 01:57:08;;;;;;;73.57;68.03;;;;;;;10.76;100.00;100387.16;1987002;70;39671;-68
2022/04/23 02:02:51;;;;;;;74.17;68.87;;;;;;;10.73;100.00;100389.72;1854670;76;86281;-67
2022/04/23 02:08:35;;;;;;;74.60;69.33;;;;;;;10.98;100.00;100387.16;1882498;75;86031;-69
2022/04/23 02:14:19;;;;;;;72.43;66.97;;;;;;;10.81;100.00;100378.77;1916271;72;86298;-68
2022/04/23 02:20:06;;;;;;;72.07;66.30;;;;;;;10.78;100.00;100382.71;1983942;71;39684;-72
2022/04/23 02:25:50;;;;;;;74.87;69.40;;;;;;;10.84;100.00;100376.77;1881804;74;86493;-72
2022/04/23 02:31:36;;;;;;;72.07;66.73;;;;;;;10.95;100.00;100371.92;1886524;75;86398;-68
2022/04/23 02:37:21;;;;;;;72.23;67.20;;;;;;;10.93;100.00;100353.31;1914114;72;86298;-71
2022/04/23 02:43:07;;;;;;;70.73;65.60;;;;;;;10.85;100.00;100349.27;1976951;71;39585;-69
2022/04/23 02:48:51;;;;;;;75.00;69.67;;;;;;;10.91;100.00;100341.69;1848236;76;85529;-71
2022/04/23 02:54:38;;;;;;;74.30;68.63;;;;;;;10.86;100.00;100309.25;1896397;73;86276;-73
2022/04/23 03:00:22;;;;;;;71.47;66.47;;;;;;;10.99;100.00;100319.34;1924462;73;86707;-72
2022/04/23 03:06:07;;;;;;;74.33;68.77;;;;;;;11.00;100.00;100311.24;1983144;71;39651;-72
2022/04/23 03:11:53;;;;;;;73.87;68.23;;;;;;;11.03;100.00;100307.88;1851634;76;85392;-68
2022/04/23 03:17:39;;;;;;;71.30;66.00;;;;;;;11.06;100.00;100305.33;1869740;74;86428;-68
2022/04/23 03:23:25;;;;;;;74.97;69.33;;;;;;;11.06;100.00;100314.22;1808587;77;86384;-69
2022/04/23 03:29:09;;;;;;;73.33;67.63;;;;;;;11.11;100.00;100316.36;1986152;71;39616;-73
2022/04/23 03:34:54;;;;;;;76.40;70.57;;;;;;;11.14;100.00;100312.97;1821140;76;86317;-72
2022/04/23 03:40:39;;;;;;;74.53;68.83;;;;;;;11.27;100.00;100303.04;1904468;73;86638;-69
2022/04/23 03:43:12;;;;;;;76.47;70.30;;;;;;;11.23;100.00;100313.11;1834934;74;939005;-72
2022/04/23 03:48:56;;;;;;;76.37;70.60;;;;;;;11.30;100.00;100303.81;1953428;72;85978;-72
2022/04/23 03:54:41;;;;;;;74.33;68.60;;;;;;;11.39;100.00;100297.83;1882125;74;86372;-69
2022/04/23 04:00:24;;;;;;;77.83;71.23;;;;;;;11.45;100.00;100286.89;1927504;73;86377;-73
2022/04/23 04:06:09;;;;;;;75.43;69.40;;;;;;;11.52;100.00;100282.30;1984326;71;39529;-68
2022/04/23 04:12:03;;;;;;;78.37;72.30;;;;;;;11.49;100.00;100274.58;1972286;71;86089;-72
2022/04/23 04:17:51;;;;;;;78.10;71.67;;;;;;;11.48;100.00;100269.58;1881563;75;86416;-73
2022/04/23 04:23:36;;;;;;;78.30;72.40;;;;;;;11.53;100.00;100270.89;1883223;74;86669;-67
2022/04/23 04:29:20;;;;;;;77.50;71.53;;;;;;;11.54;100.00;100269.77;1912957;72;86380;-69
2022/04/23 04:35:06;;;;;;;81.17;75.20;;;;;;;11.58;100.00;100267.19;1985612;71;39682;-69
2022/04/23 04:40:50;;;;;;;78.80;72.90;;;;;;;11.66;100.00;100258.96;1876121;76;86185;-73
2022/04/23 04:46:35;;;;;;;80.43;74.83;;;;;;;11.69;100.00;100267.25;1888931;74;86043;-73
2022/04/23 04:52:19;;;;;;;82.10;75.93;;;;;;;11.65;100.00;100266.21;1901216;72;86143;-68
2022/04/23 04:58:02;;;;;;;79.13;73.23;;;;;;;11.73;100.00;100264.97;1803250;78;86533;-69
2022/04/23 05:03:45;;;;;;;85.27;78.67;;;;;;;11.70;100.00;100257.22;1801318;78;86431;-69
2022/04/23 05:09:31;;;;;;;80.97;75.13;;;;;;;11.76;100.00;100262.98;1808826;77;86680;-69
2022/04/23 05:15:15;;;;;;;79.33;73.57;;;;;;;11.79;100.00;100263.75;1981512;71;39626;-72
2022/04/23 05:21:00;;;;;;;81.07;75.47;;;;;;;11.88;100.00;100261.08;1835277;76;86335;-73
2022/04/23 05:26:44;;;;;;;79.33;73.93;;;;;;;11.91;100.00;100254.06;1824893;76;86741;-73
2022/04/23 05:32:28;;;;;;;77.03;71.33;;;;;;;11.99;100.00;100255.56;1799153;77;86260;-72
2022/04/23 05:38:14;;;;;;;76.33;71.03;;;;;;;12.06;100.00;100256.55;1956936;71;39692;-73
2022/04/23 05:43:58;;;;;;;76.80;71.47;;;;;;;12.03;100.00;100251.02;1826566;76;85446;-69
2022/04/23 05:49:42;;;;;;;73.77;68.47;;;;;;;12.08;100.00;100257.05;1871167;75;86253;-73
2022/04/23 05:55:26;;;;;;;76.37;71.10;;;;;;;12.08;100.00;100255.66;1891182;74;86192;-68
2022/04/23 06:01:12;;;;;;;76.90;71.47;;;;;;;12.12;100.00;100257.52;1985549;71;39736;-73
2022/04/23 06:06:56;;;;;;;76.27;71.10;;;;;;;12.18;100.00;100249.89;1829657;75;86328;-73
2022/04/23 06:12:39;;;;;;;76.37;71.30;;;;;;;12.23;100.00;100249.80;1872121;75;86662;-69
2022/04/23 06:18:25;;;;;;;75.37;70.37;;;;;;;12.32;100.00;100252.91;1921280;72;86054;-69
2022/04/23 06:24:10;;;;;;;75.43;70.43;;;;;;;12.36;100.00;100251.73;1986849;71;39646;-68
2022/04/23 06:29:54;;;;;;;75.83;70.73;;;;;;;12.45;100.00;100255.41;1836767;75;86167;-69
2022/04/23 06:35:38;;;;;;;73.77;68.87;;;;;;;12.48;100.00;100261.77;1872815;74;86345;-69
2022/04/23 06:41:23;;;;;;;69.87;65.00;;;;;;;12.48;100.00;100267.34;1908144;72;86050;-72
2022/04/23 06:47:08;;;;;;;70.50;65.60;;;;;;;12.54;100.00;100263.86;1924262;71;39621;-72
2022/04/23 06:52:52;;;;;;;69.07;64.33;;;;;;;12.58;100.00;100264.31;1825801;76;86181;-68
2022/04/23 06:58:35;;;;;;;72.17;67.07;;;;;;;12.62;100.00;100254.78;1868905;75;85431;-68
2022/04/23 07:04:20;;;;;;;70.43;65.57;;;;;;;12.68;100.00;100264.09;1918525;72;86698;-73
2022/04/23 07:10:05;;;;;;;69.77;64.93;;;;;;;12.82;100.00;100267.41;1987410;71;39682;-68
2022/04/23 07:15:49;;;;;;;69.90;65.50;;;;;;;12.94;100.00;100258.75;1882319;74;86364;-72
2022/04/23 07:21:34;;;;;;;69.47;65.07;;;;;;;12.85;100.00;100263.42;1785467;78;86683;-68
2022/04/23 07:27:19;;;;;;;69.67;65.27;;;;;;;12.77;100.00;100273.36;1919114;72;86459;-69
2022/04/23 07:33:02;;;;;;;70.70;66.07;;;;;;;12.73;100.00;100272.34;1810962;78;86691;-73
2022/04/23 07:38:46;;;;;;;71.70;66.73;;;;;;;12.64;100.00;100266.42;1801654;78;87098;-68
2022/04/23 07:44:30;;;;;;;71.73;67.13;;;;;;;12.69;100.00;100271.32;1806481;77;85319;-69
2022/04/23 07:50:15;;;;;;;69.57;65.07;;;;;;;12.75;100.00;100265.04;1982855;71;39515;-72
2022/04/23 07:55:59;;;;;;;72.00;67.17;;;;;;;12.85;100.00;100262.03;1849648;76;86808;-74
2022/04/23 08:01:41;;;;;;;69.57;64.67;;;;;;;12.96;100.00;100258.45;1889736;74;85389;-73
2022/04/23 08:07:28;;;;;;;70.17;65.67;;;;;;;13.07;100.00;100255.66;1867245;76;86054;-73
2022/04/23 08:13:12;;;;;;;70.50;65.97;;;;;;;13.43;100.00;100252.27;1980541;71;39621;-67
2022/04/23 08:18:57;;;;;;;69.47;64.73;;;;;;;13.72;100.00;100246.75;1981471;71;86195;-72
2022/04/23 08:24:44;;;;;;;65.70;61.47;;;;;;;14.11;100.00;100248.16;1837509;77;86649;-73
2022/04/23 08:30:34;;;;;;;63.43;59.40;;;;;;;14.58;100.00;100252.91;1863600;75;86301;-74
2022/04/23 08:36:21;;;;;;;65.20;61.13;;;;;;;14.77;100.00;100244.77;1907670;72;86077;-73
2022/04/23 08:42:08;;;;;;;61.90;58.00;;;;;;;15.29;100.00;100242.78;1982151;71;39619;-67
2022/04/23 08:47:53;;;;;;;65.10;61.00;;;;;;;15.04;100.00;100257.86;1825500;76;86270;-73
2022/04/23 08:56:53;;;;;;;68.83;64.57;;;;;;;14.60;100.00;100256.75;1795985;78;86275;-68
2022/04/23 09:02:36;;;;;;;63.90;59.87;;;;;;;15.63;100.00;100251.14;1882508;74;86560;-73
2022/04/23 09:08:21;;;;;;;62.33;58.40;;;;;;;15.67;100.00;100257.71;1917009;72;86686;-68
2022/04/23 09:14:08;;;;;;;62.60;58.60;;;;;;;15.47;100.00;100268.19;1984002;71;39667;-68
2022/04/23 09:26:17;;;;;;;64.43;60.23;;;;;;;15.44;100.00;100266.89;1983029;71;39741;-68
2022/04/23 09:32:15;;;;;;;61.30;57.37;;;;;;;15.31;100.00;100277.69;1796267;78;86435;-73
2022/04/23 09:38:17;;;;;;;61.60;57.53;;;;;;;15.59;100.00;100268.36;1836711;76;86371;-73
2022/04/23 09:44:12;;;;;;;62.57;58.37;;;;;;;15.71;100.00;100269.89;1978756;71;39679;-68
2022/04/23 09:49:59;;;;;;;55.77;52.07;;;;;;;15.97;100.00;100261.97;1831433;76;86099;-73
2022/04/23 09:55:46;;;;;;;56.73;53.03;;;;;;;16.16;100.00;100261.83;1836448;77;86078;-73
2022/04/23 10:01:30;;;;;;;56.00;52.23;;;;;;;16.05;100.00;100260.54;1799161;77;86210;-67
2022/04/23 10:07:17;;;;;;;56.07;52.33;;;;;;;15.89;100.00;100266.45;1980930;71;39539;-67
2022/04/23 10:13:04;;;;;;;50.90;47.40;;;;;;;16.06;100.00;100266.39;1803105;78;86732;-74
2022/04/23 10:18:50;;;;;;;50.47;46.87;;;;;;;16.14;100.00;100261.33;1893511;74;86078;-69
2022/04/23 10:27:55;;;;;;;48.77;45.63;;;;;;;16.00;100.00;100259.92;1842546;76;86491;-72
2022/04/23 10:33:46;;;;;;;47.17;43.97;;;;;;;16.22;100.00;100256.83;1883277;74;86412;-72
2022/04/23 10:39:31;;;;;;;45.67;42.50;;;;;;;16.23;100.00;100253.70;1808537;77;85739;-68
2022/04/23 10:45:18;;;;;;;46.30;42.93;;;;;;;16.42;100.00;100255.26;1921413;72;86321;-69
2022/04/23 10:51:08;;;;;;;45.30;42.10;;;;;;;16.42;100.00;100253.28;1823042;77;86097;-68
2022/04/23 10:57:12;;;;;;;44.53;41.63;;;;;;;16.56;100.00;100256.64;1909392;72;39925;-73
2022/04/23 11:02:58;;;;;;;39.27;36.50;;;;;;;17.02;100.00;100252.06;1843780;76;86553;-67
2022/04/23 11:14:48;;;;;;;39.67;36.93;;;;;;;16.98;100.00;100244.91;1807386;78;86370;-73
2022/04/23 11:20:39;;;;;;;36.43;33.53;;;;;;;17.04;100.00;100256.73;1874928;75;86501;-68
2022/04/23 11:26:41;;;;;;;36.50;33.77;;;;;;;17.13;100.00;100251.88;1862453;75;86982;-72
2022/04/23 11:32:30;;;;;;;36.97;34.13;;;;;;;17.17;100.00;100244.41;1808511;77;86644;-67
2022/04/23 11:38:25;;;;;;;38.40;35.50;;;;;;;17.01;100.00;100237.78;1979127;71;62241;-68
2022/04/23 11:44:16;;;;;;;36.37;33.70;;;;;;;17.44;100.00;100229.78;1937130;71;39622;-68
2022/04/23 11:50:12;;;;;;;33.73;31.13;;;;;;;17.58;100.00;100227.52;1809844;78;86601;-72
2022/04/23 11:55:57;;;;;;;33.97;31.27;;;;;;;17.39;100.00;100231.98;1982787;70;86413;-72
2022/04/23 12:01:41;;;;;;;34.57;31.77;;;;;;;17.50;100.00;100224.77;1884547;74;85448;-72
2022/04/23 12:07:28;;;;;;;32.27;30.03;;;;;;;17.72;100.00;100216.77;1799051;77;86510;-72
2022/04/23 12:13:13;;;;;;;31.03;28.73;;;;;;;17.45;100.00;100220.20;1978949;71;39688;-73
2022/04/23 12:19:03;;;;;;;28.83;26.60;;;;;;;17.44;100.00;100214.34;1796299;78;85408;-73
2022/04/23 12:24:46;;;;;;;30.07;27.77;;;;;;;17.24;100.00;100214.60;1801389;78;86562;-73
2022/04/23 12:42:56;;;;;;;29.40;27.50;;;;;;;18.05;100.00;100204.64;1848403;76;85758;-72
2022/04/23 12:49:03;;;;;;;22.47;20.67;;;;;;;18.11;100.00;100203.22;1881788;73;86492;-69
2022/04/23 12:55:14;;;;;;;21.83;20.33;;;;;;;18.34;100.00;100195.13;1889767;74;86466;-73
2022/04/23 13:00:57;;;;;;;19.33;17.97;;;;;;;18.35;100.00;100191.16;1825594;77;86252;-72
2022/04/23 13:12:45;;;;;;;19.40;18.10;;;;;;;17.96;100.00;100191.28;1798948;78;85430;-69
2022/04/23 13:18:30;;;;;;;18.87;17.53;;;;;;;18.18;100.00;100180.98;1801579;77;86442;-68
2022/04/23 13:24:14;;;;;;;17.67;16.47;;;;;;;18.37;100.00;100167.70;1980756;71;39727;-73
2022/04/23 13:29:58;;;;;;;19.43;18.03;;;;;;;18.61;100.00;100167.70;1848039;76;86348;-73
2022/04/23 13:35:43;;;;;;;18.83;17.43;;;;;;;18.31;100.00;100161.53;1886380;73;86546;-72
2022/04/23 13:41:28;;;;;;;21.20;19.47;;;;;;;17.59;100.00;100163.14;1863436;75;86248;-73
2022/04/23 13:47:12;;;;;;;20.23;18.90;;;;;;;17.56;100.00;100165.22;1925260;71;39553;-72
2022/04/23 13:52:57;;;;;;;18.30;16.93;;;;;;;17.50;100.00;100163.80;1971738;72;86294;-74
2022/04/23 13:58:39;;;;;;;19.50;18.00;;;;;;;18.00;100.00;100160.73;1883522;74;85425;-74
2022/04/23 14:10:26;;;;;;;19.97;18.53;;;;;;;17.65;100.00;100163.16;1873125;75;86342;-67
2022/04/23 14:16:10;;;;;;;18.87;17.43;;;;;;;17.81;100.00;100173.70;1957229;71;39612;-68
2022/04/23 14:21:54;;;;;;;19.43;17.83;;;;;;;17.47;100.00;100173.50;1972547;72;86421;-72
2022/04/23 14:27:40;;;;;;;18.33;17.13;;;;;;;17.90;100.00;100161.77;1873073;74;86634;-72
2022/04/23 14:33:28;;;;;;;19.47;17.97;;;;;;;17.48;100.00;100161.11;1861014;75;86645;-68
2022/04/23 14:39:13;;;;;;;18.80;17.40;;;;;;;17.63;100.00;100150.62;1980252;71;39629;-68
2022/04/23 14:44:57;;;;;;;17.90;16.53;;;;;;;17.81;100.00;100157.66;1975839;71;86551;-73
2022/04/23 14:56:43;;;;;;;19.27;17.77;;;;;;;17.22;100.00;100156.61;1920158;74;86855;-68
2022/04/23 15:02:26;;;;;;;18.17;16.77;;;;;;;17.74;100.00;100151.81;1810458;77;86053;-72
2022/04/23 15:08:10;;;;;;;18.03;16.70;;;;;;;17.89;100.00;100141.28;1975958;71;39524;-73
2022/04/23 15:13:54;;;;;;;18.67;17.40;;;;;;;17.38;100.00;100149.73;1840530;76;86243;-69
2022/04/23 15:19:38;;;;;;;18.83;17.40;;;;;;;17.79;100.00;100147.96;1871034;74;86536;-73
2022/04/23 15:25:23;;;;;;;19.43;17.90;;;;;;;17.27;100.00;100152.77;1937643;73;86347;-68
2022/04/23 15:31:08;;;;;;;18.93;17.53;;;;;;;17.11;100.00;100155.42;1963067;71;39494;-68
2022/04/23 15:36:51;;;;;;;19.17;17.77;;;;;;;17.46;100.00;100153.61;1835601;76;86124;-71
2022/04/23 15:42:37;;;;;;;20.57;19.07;;;;;;;17.37;100.00;100157.12;1896925;74;86093;-67
2022/04/23 15:48:21;;;;;;;19.27;17.93;;;;;;;16.83;100.00;100179.59;1920423;73;86522;-72
2022/04/23 15:54:08;;;;;;;20.20;18.63;;;;;;;16.67;100.00;100187.00;1978309;71;39594;-73
2022/04/23 15:59:51;;;;;;;21.27;19.60;;;;;;;16.58;100.00;100193.25;1842482;76;86509;-72
2022/04/23 16:05:38;;;;;;;20.87;19.47;;;;;;;16.44;100.00;100197.69;1873627;75;86362;-68
2022/04/23 16:11:23;;;;;;;19.33;17.93;;;;;;;16.58;100.00;100198.86;1936892;73;85324;-72
2022/04/23 16:17:07;;;;;;;21.83;20.17;;;;;;;16.57;100.00;100200.84;1976331;71;39529;-67
2022/04/23 16:22:54;;;;;;;22.93;21.17;;;;;;;16.34;100.00;100206.51;1840064;75;86054;-72
2022/04/23 16:28:39;;;;;;;22.67;20.93;;;;;;;16.42;100.00;100208.43;1884610;74;86599;-74
2022/04/23 16:34:24;;;;;;;23.77;21.77;;;;;;;16.43;100.00;100205.05;1908715;74;86153;-68
2022/04/23 16:49:19;;;;;;;26.33;24.20;;;;;;;16.22;100.00;100197.41;1940843;73;86189;-73
2022/04/23 16:55:04;;;;;;;25.97;23.73;;;;;;;16.08;100.00;100199.66;1985505;71;39732;-67
2022/04/23 17:00:47;;;;;;;26.07;23.83;;;;;;;16.21;100.00;100196.36;1802250;78;86351;-72
2022/04/23 17:06:52;;;;;;;27.83;25.57;;;;;;;16.07;100.00;100199.41;1898070;74;86272;-68
2022/04/23 17:12:36;;;;;;;26.97;24.87;;;;;;;15.82;100.00;100200.35;1881808;75;86810;-68
2022/04/23 17:18:22;;;;;;;28.37;25.97;;;;;;;15.83;100.00;100205.59;1925659;73;86275;-72
2022/04/23 17:24:08;;;;;;;28.53;26.23;;;;;;;15.88;100.00;100201.22;1946695;71;39549;-72
2022/04/23 17:29:53;;;;;;;25.70;23.77;;;;;;;15.92;100.00;100201.36;1831107;76;86575;-66
2022/04/23 17:35:37;;;;;;;29.00;26.67;;;;;;;15.87;100.00;100201.57;1866591;76;86390;-66
2022/04/23 17:44:32;;;;;;;27.67;25.57;;;;;;;15.73;100.00;100210.77;1845220;76;85219;-68
2022/04/23 17:50:16;;;;;;;29.47;26.87;;;;;;;15.69;100.00;100206.41;1816471;78;85816;-68
2022/04/23 17:56:00;;;;;;;30.20;27.60;;;;;;;15.66;100.00;100199.27;1836529;76;86362;-72
2022/04/23 18:07:46;;;;;;;30.43;27.77;;;;;;;15.65;100.00;100201.24;1809594;78;85435;-68
2022/04/23 18:13:30;;;;;;;30.40;27.90;;;;;;;15.53;100.00;100209.52;1864735;75;86295;-68
2022/04/23 18:19:15;;;;;;;30.23;27.73;;;;;;;15.45;100.00;100202.73;1977273;71;39606;-67
2022/04/23 18:24:59;;;;;;;32.13;29.30;;;;;;;15.33;100.00;100206.80;1827736;76;85958;-68
2022/04/23 18:30:43;;;;;;;30.87;28.17;;;;;;;15.18;100.00;100218.53;1897350;73;86546;-71
2022/04/23 18:36:27;;;;;;;31.00;28.13;;;;;;;15.03;100.00;100223.22;1801563;77;86744;-67
2022/04/23 18:42:15;;;;;;;31.00;28.17;;;;;;;14.91;100.00;100226.69;1963429;71;39557;-68
2022/04/23 18:47:59;;;;;;;31.33;28.57;;;;;;;14.85;100.00;100234.16;1840263;76;85557;-68
2022/04/23 18:53:47;;;;;;;29.83;27.47;;;;;;;14.74;100.00;100240.67;1809624;78;86480;-70
2022/04/23 18:59:30;;;;;;;31.23;28.60;;;;;;;14.69;100.00;100239.42;1810807;77;86562;-71
2022/04/23 19:05:16;;;;;;;32.47;29.67;;;;;;;14.62;100.00;100250.28;1973390;71;39649;-68
2022/04/23 19:11:00;;;;;;;31.50;28.77;;;;;;;14.40;100.00;100247.03;1844927;76;86446;-71
2022/04/23 19:16:45;;;;;;;33.00;29.93;;;;;;;14.41;100.00;100253.45;1824592;76;86350;-68
2022/04/23 19:28:25;;;;;;;31.23;28.33;;;;;;;14.18;100.00;100265.25;1840623;76;939083;-67
2022/04/23 19:30:55;;;;;;;33.40;30.47;;;;;;;14.21;100.00;100265.99;1833743;76;940978;-67
2022/04/23 19:33:25;;;;;;;33.30;30.30;;;;;;;14.09;100.00;100275.00;1845007;75;941054;-71
2022/04/23 19:35:56;;;;;;;33.40;30.40;;;;;;;14.07;100.00;100275.08;1829313;75;941165;-70
2022/04/23 19:38:26;;;;;;;32.37;29.77;;;;;;;14.10;100.00;100278.61;1845087;75;940944;-71
2022/04/23 19:40:57;;;;;;;31.10;28.35;;;;;;;14.00;100.00;100281.11;1824328;76;940730;-70
2022/04/23 19:43:28;;;;;;;32.75;30.08;;;;;;;14.05;100.00;100285.16;1843427;76;940937;-67
2022/04/23 19:45:58;;;;;;;32.00;29.30;;;;;;;14.00;100.00;100287.27;1828126;75;941144;-70
2022/04/23 19:48:29;;;;;;;31.77;29.20;;;;;;;14.02;100.00;100291.41;1843537;76;941037;-70
2022/04/23 19:50:59;;;;;;;31.67;29.03;;;;;;;14.00;100.00;100281.69;1833256;76;945732;-71
2022/04/23 19:53:29;;;;;;;32.43;29.47;;;;;;;14.04;100.00;100291.06;1845737;76;941599;-67
2022/04/23 19:59:14;;;;;;;30.97;28.00;;;;;;;14.06;100.00;100288.22;1986222;71;39571;-72
2022/04/23 20:05:07;;;;;;;31.37;28.60;;;;;;;13.99;100.00;100304.59;1869070;74;86385;-71
2022/04/23 20:10:52;;;;;;;31.07;28.37;;;;;;;14.08;100.00;100304.06;1842264;75;86338;-68
2022/04/23 20:16:36;;;;;;;30.30;27.33;;;;;;;14.08;100.00;100307.42;1885065;75;85336;-68
2022/04/23 20:22:22;;;;;;;29.43;27.07;;;;;;;14.09;100.00;100304.89;1914008;74;86447;-71
2022/04/23 20:28:08;;;;;;;30.30;27.77;;;;;;;14.02;100.00;100304.54;1947058;71;39540;-66
2022/04/23 20:33:53;;;;;;;29.60;26.80;;;;;;;13.94;100.00;100315.92;1814903;76;86237;-69
2022/04/23 20:39:40;;;;;;;29.13;26.47;;;;;;;14.02;100.00;100302.58;1882644;75;85928;-68
2022/04/23 20:48:30;;;;;;;28.63;26.27;;;;;;;14.01;100.00;100313.48;1945148;73;86352;-67
2022/04/23 20:51:02;;;;;;;28.25;25.75;;;;;;;13.93;100.00;100324.04;1806360;75;938839;-70
2022/04/23 20:53:33;;;;;;;29.10;26.63;;;;;;;13.93;100.00;100331.59;1845438;75;940997;-70
2022/04/23 20:59:21;;;;;;;28.30;25.87;;;;;;;13.89;100.00;100323.03;1928981;73;85909;-68
2022/04/23 21:08:11;;;;;;;28.17;25.77;;;;;;;13.69;100.00;100329.96;1980269;69;39472;-71
2022/04/23 21:10:42;;;;;;;29.53;27.13;;;;;;;13.60;100.00;100338.05;1922669;73;936873;-68
2022/04/23 21:13:12;;;;;;;29.77;26.93;;;;;;;13.59;100.00;100340.58;1916029;73;940884;-72
2022/04/23 21:15:42;;;;;;;29.87;27.53;;;;;;;13.56;100.00;100339.22;1849671;75;938920;-68
2022/04/23 21:18:12;;;;;;;29.63;27.10;;;;;;;13.45;100.00;100345.38;1869470;74;941179;-68
2022/04/23 21:20:43;;;;;;;28.73;26.30;;;;;;;13.41;100.00;100348.55;1921220;73;938958;-71
2022/04/23 21:23:14;;;;;;;29.23;26.93;;;;;;;13.46;100.00;100348.44;1910732;73;940861;-71
2022/04/23 21:25:44;;;;;;;29.60;27.15;;;;;;;13.41;100.00;100353.56;1912708;73;938972;-72
2022/04/23 21:28:14;;;;;;;30.43;27.90;;;;;;;13.33;100.00;100352.93;1865625;74;940867;-71
2022/04/23 21:30:45;;;;;;;31.10;28.47;;;;;;;13.34;100.00;100355.16;1890967;74;938986;-68
2022/04/23 21:33:15;;;;;;;30.00;27.47;;;;;;;13.31;100.00;100357.16;1878130;73;941040;-68
2022/04/23 21:35:45;;;;;;;31.90;29.07;;;;;;;13.33;100.00;100354.33;1878639;74;939038;-68
2022/04/23 21:38:17;;;;;;;31.20;28.60;;;;;;;13.29;100.00;100360.84;1873090;73;940828;-71
2022/04/23 21:46:24;;;;;;;31.93;29.13;;;;;;;13.31;100.00;100373.89;1844068;76;940881;-72
2022/04/23 21:48:54;;;;;;;29.43;27.23;;;;;;;13.28;100.00;100371.75;1791422;77;941087;-71
2022/04/23 21:51:24;;;;;;;31.93;29.10;;;;;;;13.24;100.00;100374.34;1887160;74;941071;-71
2022/04/23 21:53:54;;;;;;;32.70;30.00;;;;;;;13.16;100.00;100382.06;1812566;77;940937;-71
2022/04/23 21:59:39;;;;;;;31.23;28.63;;;;;;;13.14;100.00;100383.77;1883334;74;85981;-68
2022/04/23 22:05:23;;;;;;;32.23;29.43;;;;;;;13.15;100.00;100391.56;1925132;73;86318;-68
2022/04/23 22:11:07;;;;;;;33.20;30.33;;;;;;;13.00;100.00;100391.32;1981388;71;40372;-68
2022/04/23 22:16:51;;;;;;;34.50;31.63;;;;;;;12.91;100.00;100392.36;1826336;76;86331;-68
2022/04/23 22:22:36;;;;;;;34.93;32.10;;;;;;;12.77;100.00;100397.38;1870935;76;86206;-71
2022/04/23 22:28:22;;;;;;;37.20;33.93;;;;;;;12.77;100.00;100397.95;1940410;71;86218;-67
2022/04/23 22:34:06;;;;;;;38.03;34.70;;;;;;;12.60;100.00;100407.50;1985942;71;39485;-72
2022/04/23 22:39:50;;;;;;;40.87;37.30;;;;;;;12.54;100.00;100403.14;1852341;76;86751;-68
2022/04/23 22:45:36;;;;;;;40.60;37.23;;;;;;;12.50;100.00;100395.16;1886896;74;86048;-67
2022/04/23 22:51:23;;;;;;;40.80;37.60;;;;;;;12.50;100.00;100400.16;1939248;73;86520;-71
2022/04/23 22:57:09;;;;;;;41.07;37.87;;;;;;;12.48;100.00;100404.40;1947759;72;39742;-68
2022/04/23 23:02:52;;;;;;;43.47;39.87;;;;;;;12.49;100.00;100411.06;1849248;76;86291;-70
2022/04/23 23:08:36;;;;;;;43.83;40.37;;;;;;;12.46;100.00;100411.66;1895641;73;86383;-71
2022/04/23 23:14:22;;;;;;;47.07;43.40;;;;;;;12.43;100.00;100412.29;1941076;73;86596;-67
2022/04/23 23:20:09;;;;;;;49.70;45.93;;;;;;;12.17;100.00;100427.81;1979422;71;39579;-71
2022/04/23 23:25:53;;;;;;;52.20;48.57;;;;;;;12.11;100.00;100421.50;1837440;76;86449;-71
2022/04/23 23:31:37;;;;;;;55.37;51.53;;;;;;;12.12;100.00;100423.73;1892232;75;85371;-72
2022/04/23 23:37:22;;;;;;;56.30;52.07;;;;;;;12.14;100.00;100418.12;1947826;72;86232;-71
2022/04/23 23:43:07;;;;;;;57.60;53.30;;;;;;;12.05;100.00;100418.57;1984058;70;39629;-70
2022/04/23 23:48:52;;;;;;;57.30;53.20;;;;;;;12.05;100.00;100414.39;1845349;76;86707;-68
2022/04/23 23:54:37;;;;;;;58.37;54.10;;;;;;;11.89;100.00;100419.98;1888334;75;86565;-66
